createdAt,value
2018-09-01T00:00:34.965Z,99.99
2018-09-01T00:01:35.025Z,99.99
2018-09-01T00:02:35.084Z,99.99
2018-09-01T00:03:35.145Z,99.99
2018-09-01T00:04:35.202Z,99.99
2018-09-01T00:05:35.265Z,99.99
2018-09-01T00:06:35.326Z,99.99
2018-09-01T00:07:35.386Z,99.99
2018-09-01T00:08:35.443Z,99.99
2018-09-01T00:09:35.500Z,99.99
2018-09-01T00:10:35.559Z,99.99
2018-09-01T00:11:35.622Z,99.99
2018-09-01T00:12:35.678Z,99.99
2018-09-01T00:13:35.737Z,99.99
2018-09-01T00:14:35.798Z,99.99
2018-09-01T00:15:35.857Z,99.99
2018-09-01T00:16:35.915Z,99.99
2018-09-01T00:17:35.974Z,99.99
2018-09-01T00:18:36.034Z,99.99
2018-09-01T00:19:36.093Z,99.99
2018-09-01T00:20:36.152Z,99.99
2018-09-01T00:21:36.210Z,99.99
2018-09-01T00:22:36.270Z,99.99
2018-09-01T00:23:36.329Z,99.99
2018-09-01T00:24:36.388Z,99.99
2018-09-01T00:25:36.449Z,99.99
2018-09-01T00:26:36.507Z,99.99
2018-09-01T00:27:36.565Z,99.99
2018-09-01T00:28:36.625Z,99.99
2018-09-01T00:29:36.684Z,99.99
2018-09-01T00:30:36.754Z,99.99
2018-09-01T00:31:36.804Z,99.99
2018-09-01T00:32:36.863Z,99.99
2018-09-01T00:33:36.922Z,99.99
2018-09-01T00:34:36.981Z,99.99
2018-09-01T00:35:37.044Z,99.99
2018-09-01T00:36:37.099Z,99.99
2018-09-01T00:37:37.158Z,99.99
2018-09-01T00:38:37.218Z,99.99
2018-09-01T00:39:37.386Z,99.99
2018-09-01T00:40:37.336Z,99.99
2018-09-01T00:41:37.443Z,99.99
2018-09-01T00:42:37.454Z,99.99
2018-09-01T00:43:37.515Z,99.99
2018-09-01T00:44:37.574Z,99.99
2018-09-01T00:45:37.631Z,99.99
2018-09-01T00:46:37.690Z,99.99
2018-09-01T00:47:37.750Z,99.99
2018-09-01T00:48:37.807Z,99.99
2018-09-01T00:49:38.018Z,99.99
2018-09-01T00:50:37.927Z,99.99
2018-09-01T00:51:37.987Z,99.99
2018-09-01T00:52:38.044Z,99.99
2018-09-01T00:53:38.102Z,99.99
2018-09-01T00:54:38.163Z,99.99
2018-09-01T00:55:38.221Z,99.99
2018-09-01T00:56:38.280Z,99.99
2018-09-01T00:57:38.340Z,99.99
2018-09-01T00:58:38.399Z,99.99
2018-09-01T00:59:38.458Z,99.99
2018-09-01T01:00:38.517Z,99.99
2018-09-01T01:01:38.575Z,99.99
2018-09-01T01:02:38.637Z,99.99
2018-09-01T01:03:38.694Z,99.99
2018-09-01T01:04:38.752Z,99.99
2018-09-01T01:05:38.811Z,99.99
2018-09-01T01:06:38.870Z,99.99
2018-09-01T01:07:38.929Z,99.99
2018-09-01T01:08:38.987Z,99.99
2018-09-01T01:09:39.048Z,99.99
2018-09-01T01:10:39.106Z,99.99
2018-09-01T01:11:39.166Z,99.99
2018-09-01T01:12:39.222Z,99.99
2018-09-01T01:13:39.283Z,99.99
2018-09-01T01:14:39.342Z,99.99
2018-09-01T01:15:39.402Z,99.99
2018-09-01T01:16:39.459Z,99.99
2018-09-01T01:17:39.519Z,99.99
2018-09-01T01:18:39.578Z,99.99
2018-09-01T01:19:39.638Z,99.99
2018-09-01T01:20:39.695Z,99.99
2018-09-01T01:21:39.753Z,99.99
2018-09-01T01:22:39.813Z,99.99
2018-09-01T01:23:39.871Z,99.99
2018-09-01T01:24:39.930Z,99.99
2018-09-01T01:25:39.989Z,99.99
2018-09-01T01:26:40.049Z,99.99
2018-09-01T01:27:40.108Z,99.99
2018-09-01T01:28:40.167Z,99.99
2018-09-01T01:29:40.226Z,99.99
2018-09-01T01:30:40.284Z,99.99
2018-09-01T01:31:40.344Z,99.99
2018-09-01T01:32:40.404Z,99.99
2018-09-01T01:33:40.461Z,99.99
2018-09-01T01:34:40.520Z,99.99
2018-09-01T01:35:40.579Z,99.99
2018-09-01T01:36:40.637Z,99.99
2018-09-01T01:37:40.696Z,99.99
2018-09-01T01:38:40.755Z,99.99
2018-09-01T01:39:40.844Z,99.99
2018-09-01T01:40:40.873Z,99.99
2018-09-01T01:41:41.469Z,99.99
2018-09-01T01:42:41.481Z,99.99
2018-09-01T01:43:41.050Z,99.99
2018-09-01T01:44:41.111Z,99.99
2018-09-01T01:45:41.168Z,99.99
2018-09-01T01:46:41.226Z,99.99
2018-09-01T01:47:41.287Z,99.99
2018-09-01T01:48:41.343Z,99.99
2018-09-01T01:49:41.503Z,99.99
2018-09-01T01:50:41.461Z,99.99
2018-09-01T01:51:41.521Z,99.99
2018-09-01T01:52:41.580Z,99.99
2018-09-01T01:53:41.639Z,99.99
2018-09-01T01:54:41.698Z,99.99
2018-09-01T01:55:41.756Z,99.99
2018-09-01T01:56:41.815Z,99.99
2018-09-01T01:57:41.874Z,99.99
2018-09-01T01:58:41.932Z,99.99
2018-09-01T01:59:41.991Z,99.99
2018-09-01T02:00:42.049Z,99.99
2018-09-01T02:01:42.109Z,99.99
2018-09-01T02:02:42.167Z,99.99
2018-09-01T02:03:42.226Z,99.99
2018-09-01T02:04:42.285Z,99.99
2018-09-01T02:05:42.343Z,99.99
2018-09-01T02:06:42.402Z,99.99
2018-09-01T02:07:42.463Z,99.99
2018-09-01T02:08:42.519Z,99.99
2018-09-01T02:09:42.578Z,99.99
2018-09-01T02:10:42.636Z,99.99
2018-09-01T02:11:42.696Z,99.99
2018-09-01T02:12:42.753Z,99.99
2018-09-01T02:13:42.812Z,99.99
2018-09-01T02:14:42.872Z,99.99
2018-09-01T02:15:42.930Z,99.99
2018-09-01T02:16:42.988Z,99.99
2018-09-01T02:17:43.048Z,99.99
2018-09-01T02:18:43.106Z,99.99
2018-09-01T02:19:43.166Z,99.99
2018-09-01T02:20:43.223Z,99.99
2018-09-01T02:21:43.299Z,99.99
2018-09-01T02:22:43.341Z,99.99
2018-09-01T02:23:43.400Z,99.99
2018-09-01T02:24:43.475Z,99.99
2018-09-01T02:25:43.517Z,99.99
2018-09-01T02:26:43.575Z,99.99
2018-09-01T02:27:43.634Z,99.99
2018-09-01T02:28:43.728Z,99.99
2018-09-01T02:29:43.767Z,99.99
2018-09-01T02:30:43.811Z,99.99
2018-09-01T02:31:43.868Z,99.99
2018-09-01T02:32:43.926Z,99.99
2018-09-01T02:33:43.986Z,99.99
2018-09-01T02:34:44.043Z,99.99
2018-09-01T02:35:44.103Z,99.99
2018-09-01T02:36:44.161Z,99.99
2018-09-01T02:37:44.219Z,99.99
2018-09-01T02:38:44.278Z,99.99
2018-09-01T02:39:44.336Z,99.99
2018-09-01T02:40:44.394Z,99.99
2018-09-01T02:41:44.454Z,99.99
2018-09-01T02:42:44.512Z,99.99
2018-09-01T02:43:44.571Z,99.99
2018-09-01T02:44:44.630Z,99.99
2018-09-01T02:45:44.689Z,99.99
2018-09-01T02:46:44.747Z,99.99
2018-09-01T02:47:44.806Z,99.99
2018-09-01T02:48:44.863Z,99.99
2018-09-01T02:49:44.925Z,99.99
2018-09-01T02:50:44.980Z,99.99
2018-09-01T02:51:45.040Z,99.99
2018-09-01T02:52:45.100Z,99.99
2018-09-01T02:53:45.156Z,99.99
2018-09-01T02:54:45.216Z,99.99
2018-09-01T02:55:45.273Z,99.99
2018-09-01T02:56:45.331Z,99.99
2018-09-01T02:57:45.390Z,99.99
2018-09-01T02:58:45.448Z,99.99
2018-09-01T02:59:45.508Z,99.99
2018-09-01T03:00:45.565Z,99.99
2018-09-01T03:01:46.309Z,99.99
2018-09-01T03:02:46.238Z,99.99
2018-09-01T03:03:46.308Z,99.99
2018-09-01T03:04:46.399Z,99.99
2018-09-01T03:05:46.573Z,99.99
2018-09-01T03:06:45.916Z,99.99
2018-09-01T03:07:45.974Z,99.99
2018-09-01T03:08:46.032Z,99.99
2018-09-01T03:09:46.091Z,99.99
2018-09-01T03:10:46.150Z,99.99
2018-09-01T03:11:46.208Z,99.99
2018-09-01T03:12:46.267Z,99.99
2018-09-01T03:13:46.325Z,99.99
2018-09-01T03:14:46.384Z,99.99
2018-09-01T03:15:46.446Z,99.99
2018-09-01T03:16:46.500Z,99.99
2018-09-01T03:17:46.559Z,99.99
2018-09-01T03:18:46.617Z,99.99
2018-09-01T03:19:46.676Z,99.99
2018-09-01T03:20:46.733Z,99.99
2018-09-01T03:21:46.792Z,99.99
2018-09-01T03:22:46.851Z,99.99
2018-09-01T03:23:46.911Z,99.99
2018-09-01T03:24:46.968Z,99.99
2018-09-01T03:25:47.026Z,99.99
2018-09-01T03:26:47.085Z,99.99
2018-09-01T03:27:47.143Z,99.99
2018-09-01T03:28:47.201Z,99.99
2018-09-01T03:29:47.260Z,99.99
2018-09-01T03:30:47.319Z,99.99
2018-09-01T03:31:47.379Z,99.99
2018-09-01T03:32:47.435Z,99.99
2018-09-01T03:33:47.495Z,99.99
2018-09-01T03:34:47.552Z,99.99
2018-09-01T03:35:47.611Z,99.99
2018-09-01T03:36:47.669Z,99.99
2018-09-01T03:37:47.728Z,99.99
2018-09-01T03:38:47.786Z,99.99
2018-09-01T03:39:47.845Z,99.99
2018-09-01T03:40:48.052Z,99.99
2018-09-01T03:41:47.966Z,99.99
2018-09-01T03:42:48.020Z,99.99
2018-09-01T03:43:48.078Z,99.99
2018-09-01T03:44:48.135Z,99.99
2018-09-01T03:45:48.445Z,99.99
2018-09-01T03:46:48.253Z,99.99
2018-09-01T03:47:48.311Z,99.99
2018-09-01T03:48:48.368Z,99.99
2018-09-01T03:49:48.427Z,99.99
2018-09-01T03:50:48.486Z,99.99
2018-09-01T03:51:48.553Z,99.99
2018-09-01T03:52:48.603Z,99.99
2018-09-01T03:53:48.670Z,99.99
2018-09-01T03:54:48.720Z,99.99
2018-09-01T03:55:48.778Z,99.99
2018-09-01T03:56:48.838Z,99.99
2018-09-01T03:57:48.894Z,99.99
2018-09-01T03:58:48.952Z,99.99
2018-09-01T03:59:49.011Z,99.99
2018-09-01T04:00:49.071Z,99.99
2018-09-01T04:01:49.128Z,99.99
2018-09-01T04:02:49.188Z,99.99
2018-09-01T04:03:49.245Z,99.99
2018-09-01T04:04:49.301Z,99.99
2018-09-01T04:05:49.615Z,99.99
2018-09-01T04:06:49.420Z,99.99
2018-09-01T04:07:49.477Z,99.99
2018-09-01T04:08:49.533Z,99.99
2018-09-01T04:09:49.593Z,99.99
2018-09-01T04:10:49.653Z,99.99
2018-09-01T04:11:49.710Z,99.99
2018-09-01T04:12:49.771Z,99.99
2018-09-01T04:13:49.826Z,99.99
2018-09-01T04:14:49.887Z,99.99
2018-09-01T04:15:49.943Z,99.99
2018-09-01T04:16:50.001Z,99.99
2018-09-01T04:17:50.060Z,99.99
2018-09-01T04:18:50.118Z,99.99
2018-09-01T04:19:50.176Z,99.99
2018-09-01T04:20:50.233Z,99.99
2018-09-01T04:21:50.292Z,99.99
2018-09-01T04:22:50.354Z,99.99
2018-09-01T04:23:50.409Z,99.99
2018-09-01T04:24:50.467Z,99.99
2018-09-01T04:25:50.526Z,99.99
2018-09-01T04:26:50.838Z,99.99
2018-09-01T04:27:50.642Z,99.99
2018-09-01T04:28:50.700Z,99.99
2018-09-01T04:29:50.757Z,99.99
2018-09-01T04:30:50.817Z,99.99
2018-09-01T04:31:50.879Z,99.99
2018-09-01T04:32:50.932Z,99.99
2018-09-01T04:33:50.991Z,99.99
2018-09-01T04:34:51.050Z,99.99
2018-09-01T04:35:51.107Z,99.99
2018-09-01T04:36:51.168Z,99.99
2018-09-01T04:37:51.223Z,99.99
2018-09-01T04:38:51.282Z,99.99
2018-09-01T04:39:51.340Z,99.99
2018-09-01T04:40:51.397Z,99.99
2018-09-01T04:41:51.455Z,99.99
2018-09-01T04:42:51.514Z,99.99
2018-09-01T04:43:51.573Z,99.99
2018-09-01T04:44:51.631Z,99.99
2018-09-01T04:45:51.689Z,99.99
2018-09-01T04:46:51.799Z,99.99
2018-09-01T04:47:51.805Z,99.99
2018-09-01T04:48:51.863Z,99.99
2018-09-01T04:49:51.921Z,99.99
2018-09-01T04:50:51.980Z,99.99
2018-09-01T04:51:52.038Z,99.99
2018-09-01T04:52:52.100Z,99.99
2018-09-01T04:53:52.153Z,99.99
2018-09-01T04:54:52.213Z,99.99
2018-09-01T04:55:52.270Z,99.99
2018-09-01T04:56:52.327Z,99.99
2018-09-01T04:57:52.386Z,99.99
2018-09-01T04:58:52.445Z,99.99
2018-09-01T04:59:52.502Z,99.99
2018-09-01T05:00:52.583Z,99.99
2018-09-01T05:01:52.619Z,99.99
2018-09-01T05:02:52.677Z,99.99
2018-09-01T05:03:52.735Z,99.99
2018-09-01T05:04:52.792Z,99.99
2018-09-01T05:05:52.851Z,99.99
2018-09-01T05:06:52.910Z,99.99
2018-09-01T05:07:52.968Z,99.99
2018-09-01T05:08:53.028Z,99.99
2018-09-01T05:09:53.085Z,99.99
2018-09-01T05:10:53.143Z,99.99
2018-09-01T05:11:53.200Z,99.99
2018-09-01T05:12:53.257Z,99.99
2018-09-01T05:13:53.315Z,99.99
2018-09-01T05:14:53.374Z,99.99
2018-09-01T05:15:53.438Z,99.99
2018-09-01T05:16:53.490Z,99.99
2018-09-01T05:17:53.549Z,99.99
2018-09-01T05:18:53.610Z,99.99
2018-09-01T05:19:53.665Z,99.99
2018-09-01T05:20:53.722Z,99.99
2018-09-01T05:21:53.780Z,99.99
2018-09-01T05:22:53.848Z,99.99
2018-09-01T05:23:53.937Z,99.99
2018-09-01T05:24:53.954Z,99.99
2018-09-01T05:25:54.029Z,99.99
2018-09-01T05:26:54.071Z,99.99
2018-09-01T05:27:54.129Z,99.99
2018-09-01T05:28:54.186Z,99.99
2018-09-01T05:29:54.245Z,99.99
2018-09-01T05:30:54.303Z,99.99
2018-09-01T05:31:54.367Z,99.99
2018-09-01T05:32:54.419Z,99.99
2018-09-01T05:33:54.477Z,99.99
2018-09-01T05:34:54.538Z,99.99
2018-09-01T05:35:54.595Z,99.99
2018-09-01T05:36:54.651Z,99.99
2018-09-01T05:37:54.710Z,99.99
2018-09-01T05:38:54.769Z,99.99
2018-09-01T05:39:54.827Z,99.99
2018-09-01T05:40:54.885Z,99.99
2018-09-01T05:41:54.943Z,99.99
2018-09-01T05:42:55.006Z,99.99
2018-09-01T05:43:55.061Z,99.99
2018-09-01T05:44:55.118Z,99.99
2018-09-01T05:45:55.177Z,99.99
2018-09-01T05:46:55.235Z,99.99
2018-09-01T05:47:55.293Z,99.99
2018-09-01T05:48:55.350Z,99.99
2018-09-01T05:49:55.408Z,99.99
2018-09-01T05:50:55.467Z,99.99
2018-09-01T05:51:55.525Z,99.99
2018-09-01T05:52:55.584Z,99.99
2018-09-01T05:53:55.640Z,99.99
2018-09-01T05:54:55.701Z,99.99
2018-09-01T05:55:55.759Z,99.99
2018-09-01T05:56:55.815Z,99.99
2018-09-01T05:57:55.875Z,99.99
2018-09-01T05:58:55.933Z,99.99
2018-09-01T05:59:55.992Z,99.99
2018-09-01T06:00:56.053Z,99.99
2018-09-01T06:01:56.108Z,99.99
2018-09-01T06:02:56.169Z,99.99
2018-09-01T06:03:56.225Z,99.99
2018-09-01T06:04:56.324Z,99.99
2018-09-01T06:05:56.383Z,99.99
2018-09-01T06:06:56.401Z,99.99
2018-09-01T06:07:56.460Z,99.99
2018-09-01T06:08:56.519Z,99.99
2018-09-01T06:09:56.575Z,99.99
2018-09-01T06:10:56.634Z,99.99
2018-09-01T06:11:56.692Z,99.99
2018-09-01T06:12:56.750Z,99.99
2018-09-01T06:13:56.810Z,99.99
2018-09-01T06:14:56.874Z,99.99
2018-09-01T06:15:56.927Z,99.99
2018-09-01T06:16:56.985Z,99.99
2018-09-01T06:17:57.119Z,99.99
2018-09-01T06:18:57.105Z,99.99
2018-09-01T06:19:57.161Z,99.99
2018-09-01T06:20:57.218Z,99.99
2018-09-01T06:21:57.279Z,99.99
2018-09-01T06:22:57.337Z,99.99
2018-09-01T06:23:57.445Z,99.99
2018-09-01T06:24:57.492Z,99.99
2018-09-01T06:25:57.548Z,99.99
2018-09-01T06:26:57.572Z,99.99
2018-09-01T06:27:57.631Z,99.99
2018-09-01T06:28:57.690Z,99.99
2018-09-01T06:29:57.758Z,99.99
2018-09-01T06:30:57.813Z,99.99
2018-09-01T06:31:57.868Z,99.99
2018-09-01T06:32:57.987Z,99.99
2018-09-01T06:33:57.985Z,99.99
2018-09-01T06:34:58.046Z,99.99
2018-09-01T06:35:58.104Z,99.99
2018-09-01T06:36:58.163Z,99.99
2018-09-01T06:37:58.222Z,99.99
2018-09-01T06:38:58.282Z,99.99
2018-09-01T06:39:58.345Z,99.99
2018-09-01T06:40:58.400Z,99.99
2018-09-01T06:41:58.460Z,99.99
2018-09-01T06:42:58.567Z,99.99
2018-09-01T06:43:58.580Z,99.99
2018-09-01T06:44:58.639Z,99.99
2018-09-01T06:45:58.697Z,99.99
2018-09-01T06:46:58.756Z,99.99
2018-09-01T06:47:58.820Z,99.99
2018-09-01T06:48:58.874Z,99.99
2018-09-01T06:49:58.934Z,99.99
2018-09-01T06:50:58.994Z,99.99
2018-09-01T06:51:59.057Z,99.99
2018-09-01T06:52:59.112Z,99.99
2018-09-01T06:53:59.171Z,99.99
2018-09-01T06:54:59.233Z,99.99
2018-09-01T06:55:59.292Z,99.99
2018-09-01T06:56:59.350Z,99.99
2018-09-01T06:57:59.409Z,99.99
2018-09-01T06:58:59.469Z,99.99
2018-09-01T06:59:59.532Z,99.99
2018-09-01T07:00:59.587Z,99.99
2018-09-01T07:01:59.648Z,99.99
2018-09-01T07:02:59.707Z,99.99
2018-09-01T07:03:59.767Z,99.99
2018-09-01T07:04:59.830Z,99.99
2018-09-01T07:05:59.890Z,99.99
2018-09-01T07:06:59.950Z,99.99
2018-09-01T07:08:00.005Z,99.99
2018-09-01T07:09:00.065Z,99.99
2018-09-01T07:10:00.124Z,99.99
2018-09-01T07:11:00.184Z,99.99
2018-09-01T07:12:00.247Z,99.99
2018-09-01T07:13:00.303Z,99.99
2018-09-01T07:14:00.364Z,99.99
2018-09-01T07:15:00.423Z,99.99
2018-09-01T07:16:00.482Z,99.99
2018-09-01T07:17:00.541Z,99.99
2018-09-01T07:18:00.602Z,99.99
2018-09-01T07:19:00.663Z,99.99
2018-09-01T07:20:00.721Z,99.99
2018-09-01T07:21:00.780Z,99.99
2018-09-01T07:22:00.841Z,99.99
2018-09-01T07:23:00.900Z,99.99
2018-09-01T07:24:00.962Z,99.99
2018-09-01T07:25:01.022Z,99.99
2018-09-01T07:26:01.080Z,99.99
2018-09-01T07:27:01.140Z,99.99
2018-09-01T07:28:01.203Z,99.99
2018-09-01T07:29:01.263Z,99.99
2018-09-01T07:30:01.334Z,99.99
2018-09-01T07:31:01.728Z,99.99
2018-09-01T07:32:01.440Z,99.99
2018-09-01T07:33:01.500Z,99.99
2018-09-01T07:34:01.559Z,99.99
2018-09-01T07:35:01.620Z,99.99
2018-09-01T07:36:01.680Z,99.99
2018-09-01T07:37:01.741Z,99.99
2018-09-01T07:38:01.800Z,99.99
2018-09-01T07:39:01.858Z,99.99
2018-09-01T07:40:01.921Z,99.99
2018-09-01T07:41:01.980Z,99.99
2018-09-01T07:42:02.039Z,99.99
2018-09-01T07:43:02.108Z,99.99
2018-09-01T07:44:02.161Z,99.99
2018-09-01T07:45:02.224Z,99.99
2018-09-01T07:46:02.280Z,99.99
2018-09-01T07:47:02.341Z,99.99
2018-09-01T07:48:02.402Z,99.99
2018-09-01T07:49:02.461Z,99.99
2018-09-01T07:50:02.600Z,99.99
2018-09-01T07:51:02.585Z,99.99
2018-09-01T07:52:02.644Z,99.99
2018-09-01T07:53:02.703Z,99.99
2018-09-01T07:54:02.763Z,99.99
2018-09-01T07:55:02.825Z,99.99
2018-09-01T07:56:02.987Z,99.99
2018-09-01T07:57:02.964Z,99.99
2018-09-01T07:58:03.006Z,99.99
2018-09-01T07:59:03.067Z,99.99
2018-09-01T08:00:03.127Z,99.99
2018-09-01T08:01:03.188Z,99.99
2018-09-01T08:02:03.253Z,99.99
2018-09-01T08:03:03.309Z,99.99
2018-09-01T08:04:03.370Z,99.99
2018-09-01T08:05:03.432Z,99.99
2018-09-01T08:06:03.492Z,99.99
2018-09-01T08:07:03.552Z,99.99
2018-09-01T08:08:03.617Z,99.99
2018-09-01T08:09:03.673Z,99.99
2018-09-01T08:10:03.735Z,99.99
2018-09-01T08:11:03.795Z,99.99
2018-09-01T08:12:03.857Z,99.99
2018-09-01T08:13:04.166Z,99.99
2018-09-01T08:14:04.130Z,99.99
2018-09-01T08:15:04.039Z,99.99
2018-09-01T08:16:04.101Z,99.99
2018-09-01T08:17:04.161Z,99.99
2018-09-01T08:18:04.223Z,99.99
2018-09-01T08:19:04.282Z,99.99
2018-09-01T08:20:04.344Z,99.99
2018-09-01T08:21:04.405Z,99.99
2018-09-01T08:22:04.465Z,99.99
2018-09-01T08:23:04.530Z,99.99
2018-09-01T08:24:04.589Z,99.99
2018-09-01T08:25:04.649Z,99.99
2018-09-01T08:26:04.784Z,99.99
2018-09-01T08:27:04.771Z,99.99
2018-09-01T08:28:04.832Z,99.99
2018-09-01T08:29:04.897Z,99.99
2018-09-01T08:30:04.956Z,99.99
2018-09-01T08:31:05.016Z,99.99
2018-09-01T08:32:05.078Z,99.99
2018-09-01T08:33:05.141Z,99.81
2018-09-01T08:34:05.201Z,99.52
2018-09-01T08:35:05.262Z,99.91
2018-09-01T08:36:05.324Z,99.33
2018-09-01T08:37:05.385Z,98.71
2018-09-01T08:38:05.448Z,99.00
2018-09-01T08:39:05.508Z,99.10
2018-09-01T08:40:05.590Z,98.71
2018-09-01T08:41:05.634Z,98.52
2018-09-01T08:42:05.694Z,98.24
2018-09-01T08:43:05.754Z,98.24
2018-09-01T08:44:05.817Z,98.10
2018-09-01T08:45:05.882Z,96.94
2018-09-01T08:46:05.940Z,96.94
2018-09-01T08:47:06.002Z,96.66
2018-09-01T08:48:06.064Z,95.60
2018-09-01T08:49:06.124Z,96.18
2018-09-01T08:50:06.188Z,95.36
2018-09-01T08:51:06.249Z,93.83
2018-09-01T08:52:06.313Z,93.06
2018-09-01T08:53:06.373Z,92.68
2018-09-01T08:54:06.486Z,92.82
2018-09-01T08:55:06.498Z,92.15
2018-09-01T08:56:06.560Z,91.48
2018-09-01T08:57:06.622Z,90.81
2018-09-01T08:58:06.688Z,88.98
2018-09-01T08:59:06.748Z,89.27
2018-09-01T09:00:06.811Z,88.60
2018-09-01T09:01:06.872Z,88.22
2018-09-01T09:02:06.934Z,88.35
2018-09-01T09:03:06.997Z,87.49
2018-09-01T09:04:07.060Z,86.72
2018-09-01T09:05:07.122Z,85.38
2018-09-01T09:06:07.184Z,83.94
2018-09-01T09:07:07.247Z,82.98
2018-09-01T09:08:07.309Z,82.26
2018-09-01T09:09:07.624Z,81.01
2018-09-01T09:10:07.435Z,80.73
2018-09-01T09:11:07.497Z,80.05
2018-09-01T09:12:07.560Z,79.32
2018-09-01T09:13:07.628Z,77.78
2018-09-01T09:14:07.686Z,77.21
2018-09-01T09:15:07.748Z,77.11
2018-09-01T09:16:07.811Z,75.57
2018-09-01T09:17:07.874Z,75.57
2018-09-01T09:18:07.936Z,74.90
2018-09-01T09:19:07.999Z,75.20
2018-09-01T09:20:08.077Z,74.94
2018-09-01T09:21:08.124Z,74.08
2018-09-01T09:22:08.187Z,74.33
2018-09-01T09:23:08.251Z,73.79
2018-09-01T09:24:08.313Z,74.08
2018-09-01T09:25:08.375Z,73.88
2018-09-01T09:26:08.440Z,73.88
2018-09-01T09:27:08.502Z,73.41
2018-09-01T09:28:08.566Z,73.31
2018-09-01T09:29:08.628Z,71.48
2018-09-01T09:30:08.690Z,72.44
2018-09-01T09:31:08.765Z,71.81
2018-09-01T09:32:08.818Z,71.48
2018-09-01T09:33:08.880Z,71.42
2018-09-01T09:34:51.384Z,70.94
2018-09-01T09:35:51.447Z,70.46
2018-09-01T09:36:51.512Z,69.89
2018-09-01T09:37:51.575Z,69.79
2018-09-01T09:38:51.637Z,70.07
2018-09-01T09:39:51.701Z,69.98
2018-09-01T09:40:51.765Z,69.50
2018-09-01T09:41:51.843Z,69.40
2018-09-01T09:42:51.890Z,69.24
2018-09-01T09:43:51.954Z,68.63
2018-09-01T09:44:52.018Z,69.24
2018-09-01T09:45:52.081Z,68.76
2018-09-01T09:46:52.144Z,68.67
2018-09-01T09:47:52.207Z,67.99
2018-09-01T09:48:52.271Z,67.22
2018-09-01T09:49:52.336Z,67.13
2018-09-01T09:50:52.399Z,67.03
2018-09-01T09:51:52.477Z,66.74
2018-09-01T09:52:52.563Z,67.03
2018-09-01T09:53:52.589Z,66.84
2018-09-01T09:54:52.653Z,67.03
2018-09-01T09:55:52.716Z,66.55
2018-09-01T09:56:52.782Z,65.72
2018-09-01T09:57:52.846Z,65.53
2018-09-01T09:58:53.157Z,65.63
2018-09-01T09:59:52.970Z,64.82
2018-09-01T10:00:53.077Z,65.50
2018-09-01T10:01:53.099Z,65.53
2018-09-01T10:02:53.162Z,65.63
2018-09-01T10:03:53.230Z,64.95
2018-09-01T10:04:53.290Z,65.05
2018-09-01T10:05:53.354Z,63.89
2018-09-01T10:06:53.417Z,63.79
2018-09-01T10:07:53.481Z,64.02
2018-09-01T10:08:53.545Z,63.79
2018-09-01T10:09:53.608Z,63.79
2018-09-01T10:10:53.725Z,63.51
2018-09-01T10:11:53.736Z,63.60
2018-09-01T10:12:53.800Z,63.22
2018-09-01T10:13:53.899Z,63.02
2018-09-01T10:14:53.929Z,63.12
2018-09-01T10:15:54.088Z,63.25
2018-09-01T10:16:54.056Z,62.87
2018-09-01T10:17:54.121Z,61.71
2018-09-01T10:18:54.183Z,61.71
2018-09-01T10:19:54.317Z,60.87
2018-09-01T10:20:54.314Z,60.58
2018-09-01T10:21:54.377Z,60.00
2018-09-01T10:22:54.441Z,60.20
2018-09-01T10:23:54.504Z,60.20
2018-09-01T10:24:54.568Z,59.23
2018-09-01T10:25:54.636Z,59.14
2018-09-01T10:26:54.744Z,59.33
2018-09-01T10:27:54.760Z,59.52
2018-09-01T10:28:54.826Z,58.95
2018-09-01T10:29:54.893Z,59.23
2018-09-01T10:30:55.045Z,59.04
2018-09-01T10:31:55.018Z,59.14
2018-09-01T10:32:55.082Z,59.23
2018-09-01T10:33:55.147Z,59.43
2018-09-01T10:34:55.211Z,59.04
2018-09-01T10:35:55.276Z,58.95
2018-09-01T10:36:55.342Z,58.69
2018-09-01T10:37:55.406Z,58.78
2018-09-01T10:38:55.470Z,58.01
2018-09-01T10:39:55.535Z,56.59
2018-09-01T10:40:55.600Z,56.33
2018-09-01T10:41:55.693Z,55.66
2018-09-01T10:42:55.732Z,55.36
2018-09-01T10:43:55.798Z,55.46
2018-09-01T10:44:55.865Z,55.18
2018-09-01T10:45:55.932Z,54.91
2018-09-01T10:46:55.998Z,54.84
2018-09-01T10:47:56.065Z,53.23
2018-09-01T10:48:56.137Z,51.71
2018-09-01T10:49:56.200Z,49.60
2018-09-01T10:50:56.273Z,50.55
2018-09-01T10:51:56.353Z,50.09
2018-09-01T10:52:56.405Z,49.80
2018-09-01T10:53:56.476Z,49.70
2018-09-01T10:54:56.543Z,48.66
2018-09-01T10:55:56.612Z,48.27
2018-09-01T10:56:56.682Z,46.67
2018-09-01T10:57:56.753Z,45.73
2018-09-01T10:58:56.887Z,45.54
2018-09-01T10:59:56.892Z,47.58
2018-09-01T11:00:56.963Z,48.35
2018-09-01T11:01:57.031Z,47.14
2018-09-01T11:02:57.101Z,46.94
2018-09-01T11:03:57.171Z,46.53
2018-09-01T11:04:57.241Z,45.66
2018-09-01T11:05:57.312Z,44.70
2018-09-01T11:06:57.382Z,44.72
2018-09-01T11:07:57.453Z,44.12
2018-09-01T11:08:57.524Z,45.16
2018-09-01T11:09:57.597Z,49.10
2018-09-01T11:10:57.664Z,50.96
2018-09-01T11:11:57.736Z,49.82
2018-09-01T11:12:57.805Z,48.66
2018-09-01T11:13:57.876Z,48.81
2018-09-01T11:14:57.945Z,51.84
2018-09-01T11:15:58.016Z,50.96
2018-09-01T11:16:58.086Z,48.79
2018-09-01T11:17:58.161Z,47.09
2018-09-01T11:18:58.225Z,45.57
2018-09-01T11:19:58.295Z,44.53
2018-09-01T11:20:58.470Z,43.75
2018-09-01T11:21:58.435Z,44.21
2018-09-01T11:22:58.504Z,44.43
2018-09-01T11:23:58.573Z,44.16
2018-09-01T11:24:58.643Z,44.23
2018-09-01T11:25:58.714Z,44.06
2018-09-01T11:26:58.783Z,43.79
2018-09-01T11:27:58.857Z,43.21
2018-09-01T11:28:58.924Z,43.62
2018-09-01T11:29:58.994Z,42.75
2018-09-01T11:30:59.064Z,42.55
2018-09-01T11:31:59.135Z,43.09
2018-09-01T11:32:59.218Z,43.87
2018-09-01T11:33:59.277Z,43.82
2018-09-01T11:34:59.346Z,41.63
2018-09-01T11:35:59.418Z,40.95
2018-09-01T11:36:59.490Z,41.26
2018-09-01T11:37:59.563Z,41.45
2018-09-01T11:38:59.631Z,43.54
2018-09-01T11:39:59.702Z,44.04
2018-09-01T11:40:59.773Z,42.82
2018-09-01T11:41:59.844Z,42.26
2018-09-01T11:43:00.088Z,41.33
2018-09-01T11:43:59.986Z,42.72
2018-09-01T11:45:00.060Z,46.66
2018-09-01T11:46:00.130Z,46.71
2018-09-01T11:47:00.200Z,48.42
2018-09-01T11:48:00.272Z,48.59
2018-09-01T11:49:00.344Z,46.12
2018-09-01T11:50:00.440Z,44.79
2018-09-01T11:51:00.485Z,43.46
2018-09-01T11:52:00.577Z,42.32
2018-09-01T11:53:00.661Z,41.74
2018-09-01T11:54:00.709Z,42.03
2018-09-01T11:55:00.788Z,42.17
2018-09-01T11:56:00.838Z,40.91
2018-09-01T11:57:00.911Z,40.54
2018-09-01T11:58:00.984Z,41.39
2018-09-01T11:59:01.055Z,41.99
2018-09-01T12:00:01.122Z,44.02
2018-09-01T12:01:01.195Z,43.71
2018-09-01T12:02:01.288Z,44.38
2018-09-01T12:03:01.334Z,44.36
2018-09-01T12:04:01.406Z,44.24
2018-09-01T12:05:01.475Z,45.38
2018-09-01T12:06:01.546Z,47.36
2018-09-01T12:07:01.616Z,48.33
2018-09-01T12:08:01.689Z,48.52
2018-09-01T12:09:01.807Z,48.25
2018-09-01T12:10:01.828Z,48.03
2018-09-01T12:11:01.896Z,47.77
2018-09-01T12:12:01.970Z,47.38
2018-09-01T12:13:02.037Z,45.94
2018-09-01T12:14:02.149Z,46.59
2018-09-01T12:15:02.174Z,46.97
2018-09-01T12:16:02.240Z,46.78
2018-09-01T12:17:02.307Z,46.69
2018-09-01T12:18:02.377Z,46.13
2018-09-01T12:19:02.443Z,44.92
2018-09-01T12:20:02.514Z,43.54
2018-09-01T12:21:02.579Z,41.62
2018-09-01T12:22:02.649Z,42.22
2018-09-01T12:23:02.715Z,40.21
2018-09-01T12:24:02.782Z,39.14
2018-09-01T12:25:02.851Z,39.61
2018-09-01T12:26:02.920Z,39.24
2018-09-01T12:27:02.987Z,38.02
2018-09-01T12:28:03.084Z,36.42
2018-09-01T12:29:03.125Z,34.80
2018-09-01T12:30:03.194Z,34.59
2018-09-01T12:31:03.267Z,34.77
2018-09-01T12:32:03.386Z,34.77
2018-09-01T12:33:03.402Z,35.77
2018-09-01T12:34:04.069Z,37.71
2018-09-01T12:35:03.540Z,37.41
2018-09-01T12:36:03.620Z,37.98
2018-09-01T12:37:04.359Z,38.40
2018-09-01T12:38:03.751Z,36.76
2018-09-01T12:39:03.823Z,36.38
2018-09-01T12:40:03.892Z,36.58
2018-09-01T12:41:03.963Z,35.64
2018-09-01T12:42:04.101Z,35.49
2018-09-01T12:43:04.107Z,36.93
2018-09-01T12:44:04.175Z,36.19
2018-09-01T12:45:04.246Z,35.53
2018-09-01T12:46:04.319Z,34.79
2018-09-01T12:47:04.389Z,33.85
2018-09-01T12:48:04.460Z,33.07
2018-09-01T12:49:04.531Z,33.17
2018-09-01T12:50:04.605Z,33.33
2018-09-01T12:51:04.675Z,32.87
2018-09-01T12:52:04.750Z,31.84
2018-09-01T12:53:04.884Z,31.87
2018-09-01T12:54:04.893Z,32.94